Time;durP1;ratioP1;P1;durP2;ratioP2;P2;SDS_P1;SDS_P2;PMS_P1;PMS_P2;Temp;Humidity;BMP_temperature;BMP_pressure;BME280_temperature;BME280_humidity;BME280_pressure;Samples;Min_cycle;Max_cycle;Signal;HPM_P1;HPM_P2
2023/11/05 00:01:40;;;;;;;0.52;0.52;;;;;;;;;;4925840;28;20532;-79
2023/11/05 00:04:07;;;;;;;0.60;0.60;;;;;;;;;;4927864;28;20043;-81
2023/11/05 00:06:33;;;;;;;1.95;0.70;;;;;;;;;;4942668;28;20035;-80
2023/11/05 00:08:58;;;;;;;1.13;0.73;;;;;;;;;;4924563;28;20714;-80
2023/11/05 00:11:24;;;;;;;0.98;0.60;;;;;;;;;;4931510;28;20036;-79
2023/11/05 00:13:49;;;;;;;0.50;0.50;;;;;;;;;;4946853;28;20153;-79
2023/11/05 00:16:15;;;;;;;0.60;0.60;;;;;;;;;;4946497;28;20039;-79
2023/11/05 00:18:41;;;;;;;1.13;0.60;;;;;;;;;;4952216;28;20063;-79
2023/11/05 00:21:07;;;;;;;0.55;0.55;;;;;;;;;;4957658;28;20520;-78
2023/11/05 00:23:32;;;;;;;0.50;0.50;;;;;;;;;;4939308;28;20054;-79
2023/11/05 00:25:58;;;;;;;0.68;0.68;;;;;;;;;;4942728;28;20043;-78
2023/11/05 00:28:23;;;;;;;1.45;0.63;;;;;;;;;;4945764;28;20070;-78
2023/11/05 00:30:48;;;;;;;1.20;0.43;;;;;;;;;;4942183;28;20049;-78
2023/11/05 00:33:14;;;;;;;0.80;0.70;;;;;;;;;;4946332;28;20046;-78
2023/11/05 00:35:39;;;;;;;1.60;0.50;;;;;;;;;;4941022;28;20484;-78
2023/11/05 00:38:05;;;;;;;0.50;0.50;;;;;;;;;;4932063;28;20138;-77
2023/11/05 00:40:30;;;;;;;0.75;0.60;;;;;;;;;;4928949;28;20831;-78
2023/11/05 00:42:56;;;;;;;0.40;0.40;;;;;;;;;;4943324;28;20043;-78
2023/11/05 00:45:22;;;;;;;0.60;0.60;;;;;;;;;;4943344;28;20094;-77
2023/11/05 00:47:48;;;;;;;0.40;0.40;;;;;;;;;;4939292;28;20466;-78
2023/11/05 00:50:13;;;;;;;1.55;0.63;;;;;;;;;;4944460;28;20058;-79
2023/11/05 00:52:38;;;;;;;0.60;0.43;;;;;;;;;;4930120;28;20042;-79
2023/11/05 00:55:04;;;;;;;0.47;0.47;;;;;;;;;;4945297;28;20751;-79
2023/11/05 00:57:30;;;;;;;0.85;0.40;;;;;;;;;;4927667;28;20047;-80
2023/11/05 00:59:55;;;;;;;0.70;0.50;;;;;;;;;;4928205;28;20142;-79
2023/11/05 01:02:20;;;;;;;1.73;0.80;;;;;;;;;;4928951;28;20764;-80
2023/11/05 01:04:46;;;;;;;2.40;0.50;;;;;;;;;;4945909;28;20122;-80
2023/11/05 01:07:11;;;;;;;0.65;0.57;;;;;;;;;;4924728;28;20248;-78
2023/11/05 01:09:36;;;;;;;1.75;0.50;;;;;;;;;;4946476;28;20039;-78
2023/11/05 01:12:02;;;;;;;0.30;0.30;;;;;;;;;;4941848;28;20043;-79
2023/11/05 01:14:27;;;;;;;0.68;0.40;;;;;;;;;;4943160;28;20046;-80
2023/11/05 01:16:53;;;;;;;1.13;0.50;;;;;;;;;;4943589;28;20471;-79
2023/11/05 01:19:18;;;;;;;0.30;0.30;;;;;;;;;;4944802;28;20028;-79
2023/11/05 01:21:44;;;;;;;0.57;0.50;;;;;;;;;;4944399;28;20057;-79
2023/11/05 01:24:09;;;;;;;0.50;0.40;;;;;;;;;;4952611;28;20068;-80
2023/11/05 01:26:35;;;;;;;0.40;0.40;;;;;;;;;;4926749;28;20039;-79
2023/11/05 01:29:00;;;;;;;1.73;0.38;;;;;;;;;;4926810;28;20059;-79
2023/11/05 01:31:27;;;;;;;1.95;0.30;;;;;;;;;;4927521;28;20078;-79
2023/11/05 01:33:52;;;;;;;0.90;0.40;;;;;;;;;;4942707;28;20039;-79
2023/11/05 01:36:17;;;;;;;0.40;0.40;;;;;;;;;;4916010;28;20077;-80
2023/11/05 01:38:43;;;;;;;0.40;0.40;;;;;;;;;;4922313;28;20047;-80
2023/11/05 01:41:08;;;;;;;0.50;0.50;;;;;;;;;;4943528;28;20036;-79
2023/11/05 01:43:34;;;;;;;0.52;0.50;;;;;;;;;;4923215;28;20046;-78
2023/11/05 01:46:00;;;;;;;0.45;0.30;;;;;;;;;;4926432;28;20051;-80
2023/11/05 01:48:26;;;;;;;0.90;0.57;;;;;;;;;;4941485;28;20555;-80
2023/11/05 01:50:52;;;;;;;1.52;0.40;;;;;;;;;;4939220;28;20056;-80
2023/11/05 01:53:18;;;;;;;0.40;0.40;;;;;;;;;;4951210;28;20612;-80
2023/11/05 01:55:44;;;;;;;0.88;0.50;;;;;;;;;;4925210;28;20132;-79
2023/11/05 01:58:11;;;;;;;0.70;0.40;;;;;;;;;;4937520;28;20629;-80
2023/11/05 02:00:37;;;;;;;7.15;1.63;;;;;;;;;;4937413;28;20032;-79
2023/11/05 02:03:03;;;;;;;3.17;0.50;;;;;;;;;;4936892;28;20035;-81
2023/11/05 02:05:28;;;;;;;0.93;0.40;;;;;;;;;;4910383;28;20048;-80
2023/11/05 02:07:54;;;;;;;0.47;0.47;;;;;;;;;;4938734;28;20035;-81
2023/11/05 02:10:19;;;;;;;74.05;5.68;;;;;;;;;;4939654;28;20112;-79
2023/11/05 02:12:57;;;;;;;0.32;0.32;;;;;;;;;;4940217;28;20035;-79
2023/11/05 02:15:23;;;;;;;1.77;0.60;;;;;;;;;;4933822;28;20039;-79
2023/11/05 02:17:49;;;;;;;0.70;0.50;;;;;;;;;;4925478;28;20043;-80
2023/11/05 02:20:14;;;;;;;0.80;0.50;;;;;;;;;;4932850;28;20051;-79
2023/11/05 02:22:41;;;;;;;0.98;0.55;;;;;;;;;;4924379;28;20038;-81
2023/11/05 02:25:06;;;;;;;1.70;0.50;;;;;;;;;;4928838;28;20118;-81
2023/11/05 02:27:32;;;;;;;0.40;0.40;;;;;;;;;;4941332;28;20101;-80
2023/11/05 02:29:57;;;;;;;2.22;0.55;;;;;;;;;;4939278;28;20193;-81
2023/11/05 02:32:23;;;;;;;1.65;0.50;;;;;;;;;;4931090;28;20508;-82
2023/11/05 02:34:48;;;;;;;0.65;0.40;;;;;;;;;;4939182;28;20051;-82
2023/11/05 02:37:14;;;;;;;0.57;0.50;;;;;;;;;;4942209;28;20035;-81
2023/11/05 02:39:39;;;;;;;1.65;0.52;;;;;;;;;;4947126;28;20047;-81
2023/11/05 02:42:05;;;;;;;0.50;0.30;;;;;;;;;;4939500;28;20028;-82
2023/11/05 02:44:30;;;;;;;1.15;0.43;;;;;;;;;;4928462;28;20066;-81
2023/11/05 02:46:56;;;;;;;0.95;0.50;;;;;;;;;;4927862;28;20491;-78
2023/11/05 02:49:21;;;;;;;0.63;0.43;;;;;;;;;;4942011;28;20525;-79
2023/11/05 02:51:46;;;;;;;0.50;0.40;;;;;;;;;;4939586;28;20085;-79
2023/11/05 02:54:12;;;;;;;0.55;0.40;;;;;;;;;;4937956;28;20043;-82
2023/11/05 02:56:37;;;;;;;0.70;0.40;;;;;;;;;;4938264;28;20427;-81
2023/11/05 02:59:03;;;;;;;2.17;0.60;;;;;;;;;;4938052;28;20069;-80
2023/11/05 03:01:29;;;;;;;1.80;0.45;;;;;;;;;;4928342;28;20613;-81
2023/11/05 03:03:55;;;;;;;3.00;0.50;;;;;;;;;;4941212;28;20043;-80
2023/11/05 03:06:21;;;;;;;1.52;0.40;;;;;;;;;;4942098;28;20043;-80
2023/11/05 03:08:47;;;;;;;2.50;0.30;;;;;;;;;;4942348;28;20703;-80
2023/11/05 03:11:12;;;;;;;0.68;0.35;;;;;;;;;;4941566;28;20101;-80
2023/11/05 03:13:37;;;;;;;0.32;0.28;;;;;;;;;;4942774;28;20059;-80
2023/11/05 03:16:05;;;;;;;0.45;0.35;;;;;;;;;;4928332;28;20053;-81
2023/11/05 03:18:30;;;;;;;0.55;0.40;;;;;;;;;;4944352;28;20061;-80
2023/11/05 03:20:57;;;;;;;2.10;0.52;;;;;;;;;;4949016;28;20540;-80
2023/11/05 03:23:22;;;;;;;0.85;0.57;;;;;;;;;;4922596;28;20130;-80
2023/11/05 03:25:48;;;;;;;0.98;0.40;;;;;;;;;;4941455;28;20055;-81
2023/11/05 03:28:13;;;;;;;1.83;0.70;;;;;;;;;;4932046;28;20516;-81
2023/11/05 03:30:39;;;;;;;2.65;0.40;;;;;;;;;;4947235;28;20043;-82
2023/11/05 03:33:05;;;;;;;0.30;0.30;;;;;;;;;;4945597;28;20419;-83
2023/11/05 03:35:31;;;;;;;1.30;0.40;;;;;;;;;;4930107;28;20420;-81
2023/11/05 03:37:56;;;;;;;0.70;0.40;;;;;;;;;;4945218;28;20027;-81
2023/11/05 03:40:22;;;;;;;0.55;0.45;;;;;;;;;;4945011;28;20492;-81
2023/11/05 03:42:47;;;;;;;2.45;0.50;;;;;;;;;;4903817;28;20028;-81
2023/11/05 03:45:13;;;;;;;2.55;0.50;;;;;;;;;;4930775;28;20039;-80
2023/11/05 03:47:38;;;;;;;0.77;0.40;;;;;;;;;;4942126;28;20113;-80
2023/11/05 03:50:04;;;;;;;0.50;0.40;;;;;;;;;;4948513;28;20064;-80
2023/11/05 03:52:29;;;;;;;1.13;0.32;;;;;;;;;;4954100;28;20111;-78
2023/11/05 03:54:55;;;;;;;0.40;0.40;;;;;;;;;;4942042;28;20114;-79
2023/11/05 03:57:21;;;;;;;2.20;0.47;;;;;;;;;;4931368;28;20031;-80
2023/11/05 03:59:46;;;;;;;0.40;0.40;;;;;;;;;;4928294;28;20054;-80
2023/11/05 04:02:12;;;;;;;0.45;0.30;;;;;;;;;;4938974;28;20067;-80
2023/11/05 04:04:37;;;;;;;0.93;0.40;;;;;;;;;;4940056;28;20080;-79
2023/11/05 04:07:07;;;;;;;2.25;0.50;;;;;;;;;;4939892;28;20028;-80
2023/11/05 04:09:33;;;;;;;0.40;0.40;;;;;;;;;;4938815;28;20039;-79
2023/11/05 04:11:59;;;;;;;0.85;0.32;;;;;;;;;;4931546;28;20087;-79
2023/11/05 04:14:25;;;;;;;1.60;0.30;;;;;;;;;;4941449;28;20043;-79
2023/11/05 04:16:51;;;;;;;0.88;0.40;;;;;;;;;;4929137;28;20676;-79
2023/11/05 04:19:16;;;;;;;1.52;0.43;;;;;;;;;;4942627;28;20089;-79
2023/11/05 04:21:41;;;;;;;0.28;0.28;;;;;;;;;;4927507;28;20682;-79
2023/11/05 04:24:07;;;;;;;1.75;0.45;;;;;;;;;;4943473;28;20130;-80
2023/11/05 04:26:32;;;;;;;2.40;0.50;;;;;;;;;;4938481;28;20507;-79
2023/11/05 04:28:58;;;;;;;0.73;0.50;;;;;;;;;;4926661;28;20043;-79
2023/11/05 04:31:24;;;;;;;1.55;0.43;;;;;;;;;;4943921;28;20690;-80
2023/11/05 04:33:51;;;;;;;0.75;0.40;;;;;;;;;;4943433;28;20043;-81
2023/11/05 04:36:16;;;;;;;0.38;0.38;;;;;;;;;;4942829;28;20053;-80
2023/11/05 04:38:42;;;;;;;0.93;0.40;;;;;;;;;;4942525;28;20034;-79
2023/11/05 04:41:08;;;;;;;0.40;0.30;;;;;;;;;;4931621;28;20045;-80
2023/11/05 04:43:33;;;;;;;0.68;0.45;;;;;;;;;;4923912;28;20035;-80
2023/11/05 04:45:59;;;;;;;1.58;0.55;;;;;;;;;;4939966;28;20136;-80
2023/11/05 04:48:25;;;;;;;0.60;0.40;;;;;;;;;;4941001;28;20043;-78
2023/11/05 04:50:51;;;;;;;0.22;0.22;;;;;;;;;;4946685;28;20043;-79
2023/11/05 04:53:16;;;;;;;1.63;0.50;;;;;;;;;;4935181;28;20119;-80
2023/11/05 04:55:41;;;;;;;1.08;0.35;;;;;;;;;;4942861;28;20100;-79
2023/11/05 04:58:07;;;;;;;0.40;0.30;;;;;;;;;;4942723;28;20038;-79
2023/11/05 05:00:32;;;;;;;1.55;0.50;;;;;;;;;;4943883;28;20487;-78
2023/11/05 05:02:58;;;;;;;0.35;0.35;;;;;;;;;;4936775;28;20035;-79
2023/11/05 05:05:23;;;;;;;1.33;0.55;;;;;;;;;;4938485;28;20599;-79
2023/11/05 05:07:48;;;;;;;0.32;0.30;;;;;;;;;;4927383;28;20039;-79
2023/11/05 05:10:14;;;;;;;0.68;0.40;;;;;;;;;;4937744;28;20381;-80
2023/11/05 05:12:39;;;;;;;1.58;0.47;;;;;;;;;;4943422;28;20503;-79
2023/11/05 05:15:05;;;;;;;1.20;0.30;;;;;;;;;;4945129;28;20035;-81
2023/11/05 05:17:31;;;;;;;0.57;0.30;;;;;;;;;;4939503;28;20047;-80
2023/11/05 05:19:58;;;;;;;0.75;0.30;;;;;;;;;;4946760;28;20051;-81
2023/11/05 05:22:24;;;;;;;0.55;0.20;;;;;;;;;;4931823;28;20047;-82
2023/11/05 05:24:50;;;;;;;1.17;0.40;;;;;;;;;;4925250;28;20031;-80
2023/11/05 05:27:15;;;;;;;0.40;0.40;;;;;;;;;;4942709;28;20848;-81
2023/11/05 05:29:41;;;;;;;0.35;0.28;;;;;;;;;;4943146;28;20504;-81
2023/11/05 05:32:06;;;;;;;0.30;0.30;;;;;;;;;;4939802;28;20071;-80
2023/11/05 05:34:32;;;;;;;0.30;0.30;;;;;;;;;;4947957;28;20134;-80
2023/11/05 05:36:57;;;;;;;1.05;0.50;;;;;;;;;;4933254;28;20126;-80
2023/11/05 05:39:23;;;;;;;0.93;0.30;;;;;;;;;;4941955;28;20446;-79
2023/11/05 05:41:48;;;;;;;1.15;0.30;;;;;;;;;;4938350;28;20196;-80
2023/11/05 05:44:14;;;;;;;1.17;0.30;;;;;;;;;;4939687;28;20047;-78
2023/11/05 05:46:39;;;;;;;0.20;0.20;;;;;;;;;;4939659;28;20043;-79
2023/11/05 05:49:05;;;;;;;1.90;0.80;;;;;;;;;;4939054;28;20118;-80
2023/11/05 05:51:31;;;;;;;1.88;0.50;;;;;;;;;;4930552;28;20045;-78
2023/11/05 05:53:57;;;;;;;1.42;0.40;;;;;;;;;;4941396;28;20411;-80
2023/11/05 05:56:22;;;;;;;1.20;0.40;;;;;;;;;;4939208;28;20039;-78
2023/11/05 05:58:48;;;;;;;0.98;0.25;;;;;;;;;;4938777;28;20043;-80
2023/11/05 06:01:13;;;;;;;0.50;0.40;;;;;;;;;;4921350;28;20050;-80
2023/11/05 06:03:39;;;;;;;0.52;0.32;;;;;;;;;;4937503;28;20036;-78
2023/11/05 06:06:04;;;;;;;1.60;0.50;;;;;;;;;;4928427;28;20035;-81
2023/11/05 06:08:30;;;;;;;1.10;0.38;;;;;;;;;;4940214;28;20043;-79
2023/11/05 06:10:55;;;;;;;1.10;0.20;;;;;;;;;;4923218;28;20085;-81
2023/11/05 06:13:21;;;;;;;0.60;0.40;;;;;;;;;;4940485;28;20074;-81
2023/11/05 06:15:47;;;;;;;0.60;0.47;;;;;;;;;;4941224;28;20032;-80
2023/11/05 06:18:13;;;;;;;0.45;0.43;;;;;;;;;;4938473;28;20715;-80
2023/11/05 06:20:38;;;;;;;0.38;0.30;;;;;;;;;;4944113;28;20792;-79
2023/11/05 06:23:04;;;;;;;1.05;0.57;;;;;;;;;;4941684;28;20035;-78
2023/11/05 06:25:30;;;;;;;2.08;0.60;;;;;;;;;;4955249;28;20035;-79
2023/11/05 06:27:55;;;;;;;0.40;0.40;;;;;;;;;;4925098;28;20039;-80
2023/11/05 06:30:21;;;;;;;0.73;0.65;;;;;;;;;;4927228;28;20047;-79
2023/11/05 06:32:46;;;;;;;0.30;0.30;;;;;;;;;;4924892;28;20058;-79
2023/11/05 06:35:12;;;;;;;0.30;0.30;;;;;;;;;;4929330;28;20036;-78
2023/11/05 06:37:37;;;;;;;0.40;0.40;;;;;;;;;;4948260;28;20043;-78
2023/11/05 06:40:04;;;;;;;3.13;0.45;;;;;;;;;;4926658;28;20043;-79
2023/11/05 06:42:30;;;;;;;0.90;0.40;;;;;;;;;;4943226;28;20054;-79
2023/11/05 06:44:55;;;;;;;0.45;0.38;;;;;;;;;;4944973;28;20043;-79
2023/11/05 06:47:21;;;;;;;2.22;0.40;;;;;;;;;;4924120;28;20097;-79
2023/11/05 06:49:46;;;;;;;0.25;0.25;;;;;;;;;;4899245;28;20236;-79
2023/11/05 06:52:12;;;;;;;0.95;0.40;;;;;;;;;;4949896;28;20031;-80
2023/11/05 06:54:39;;;;;;;0.65;0.40;;;;;;;;;;4940856;28;20046;-81
2023/11/05 06:57:05;;;;;;;0.57;0.50;;;;;;;;;;4923327;28;20043;-80
2023/11/05 06:59:31;;;;;;;1.30;0.30;;;;;;;;;;4934234;28;20110;-80
2023/11/05 07:01:56;;;;;;;1.67;0.25;;;;;;;;;;4925553;28;20035;-79
2023/11/05 07:04:22;;;;;;;1.02;0.30;;;;;;;;;;4931957;28;20051;-76
2023/11/05 07:06:48;;;;;;;0.85;0.30;;;;;;;;;;4938819;28;20117;-77
2023/11/05 07:09:13;;;;;;;0.30;0.30;;;;;;;;;;4936686;28;20040;-77
2023/11/05 07:11:40;;;;;;;0.30;0.30;;;;;;;;;;4938246;28;20120;-76
2023/11/05 07:14:06;;;;;;;0.52;0.52;;;;;;;;;;4938447;28;20462;-77
2023/11/05 07:16:31;;;;;;;0.85;0.52;;;;;;;;;;4931644;28;20577;-76
2023/11/05 07:18:57;;;;;;;0.43;0.28;;;;;;;;;;4939132;28;20035;-76
2023/11/05 07:21:22;;;;;;;1.17;0.35;;;;;;;;;;4913064;28;20047;-76
2023/11/05 07:23:48;;;;;;;0.85;0.40;;;;;;;;;;4934657;28;20093;-76
2023/11/05 07:26:13;;;;;;;0.75;0.38;;;;;;;;;;4933464;28;20039;-74
2023/11/05 07:28:39;;;;;;;0.40;0.30;;;;;;;;;;4934285;28;20039;-74
2023/11/05 07:31:05;;;;;;;0.50;0.30;;;;;;;;;;4926081;28;20467;-74
2023/11/05 07:33:31;;;;;;;0.30;0.30;;;;;;;;;;4923990;28;20113;-74
2023/11/05 07:35:58;;;;;;;1.67;0.30;;;;;;;;;;4933586;28;20451;-74
2023/11/05 07:38:26;;;;;;;0.20;0.20;;;;;;;;;;4933521;28;20039;-74
2023/11/05 07:40:51;;;;;;;0.22;0.20;;;;;;;;;;4933739;28;20686;-74
2023/11/05 07:43:17;;;;;;;0.57;0.20;;;;;;;;;;4933374;28;20047;-74
2023/11/05 07:45:43;;;;;;;1.02;0.30;;;;;;;;;;4926496;28;20493;-74
2023/11/05 07:48:08;;;;;;;0.98;0.30;;;;;;;;;;4944790;28;20028;-74
2023/11/05 07:50:34;;;;;;;0.85;0.20;;;;;;;;;;4933958;28;20043;-73
2023/11/05 07:53:00;;;;;;;1.00;0.25;;;;;;;;;;4933572;28;20039;-74
2023/11/05 07:55:25;;;;;;;0.52;0.28;;;;;;;;;;4936226;28;20049;-74
2023/11/05 07:57:51;;;;;;;0.30;0.30;;;;;;;;;;4935185;28;20051;-73
2023/11/05 08:00:18;;;;;;;0.32;0.32;;;;;;;;;;4924189;28;20040;-74
2023/11/05 08:02:44;;;;;;;0.22;0.20;;;;;;;;;;4920771;28;20040;-74
2023/11/05 08:05:09;;;;;;;0.30;0.20;;;;;;;;;;4936772;28;20040;-75
2023/11/05 08:07:35;;;;;;;0.93;0.30;;;;;;;;;;4940201;28;20122;-74
2023/11/05 08:10:00;;;;;;;1.55;0.32;;;;;;;;;;4933604;28;20065;-72
2023/11/05 08:12:27;;;;;;;1.10;0.60;;;;;;;;;;4928140;28;20085;-74
2023/11/05 08:14:52;;;;;;;1.77;0.30;;;;;;;;;;4936104;28;20043;-73
2023/11/05 08:17:17;;;;;;;0.50;0.30;;;;;;;;;;4937879;28;20041;-74
2023/11/05 08:19:43;;;;;;;0.80;0.52;;;;;;;;;;4935842;28;20058;-74
2023/11/05 08:22:10;;;;;;;1.75;0.50;;;;;;;;;;4927518;28;20050;-74
2023/11/05 08:24:35;;;;;;;0.47;0.30;;;;;;;;;;4935811;28;20031;-73
2023/11/05 08:27:01;;;;;;;0.30;0.30;;;;;;;;;;4926895;28;20054;-73
2023/11/05 08:29:27;;;;;;;0.70;0.20;;;;;;;;;;4935910;28;20590;-74
2023/11/05 08:31:52;;;;;;;1.17;0.40;;;;;;;;;;4935742;28;20040;-73
2023/11/05 08:34:18;;;;;;;0.52;0.30;;;;;;;;;;4940974;28;20431;-73
2023/11/05 08:36:43;;;;;;;0.30;0.30;;;;;;;;;;4939152;28;20039;-74
2023/11/05 08:39:09;;;;;;;1.45;1.25;;;;;;;;;;4938578;28;20115;-74
2023/11/05 08:41:34;;;;;;;0.47;0.47;;;;;;;;;;4925711;28;20035;-75
2023/11/05 08:44:00;;;;;;;1.00;0.30;;;;;;;;;;4938154;28;20035;-74
2023/11/05 08:46:25;;;;;;;0.50;0.45;;;;;;;;;;4932988;28;20070;-74
2023/11/05 08:48:51;;;;;;;0.73;0.30;;;;;;;;;;4938922;28;20052;-74
2023/11/05 08:51:26;;;;;;;0.28;0.28;;;;;;;;;;4918971;28;20125;-74
2023/11/05 08:53:53;;;;;;;0.40;0.30;;;;;;;;;;4939460;28;20502;-74
2023/11/05 08:56:19;;;;;;;0.88;0.40;;;;;;;;;;4928008;28;20121;-74
2023/11/05 08:58:44;;;;;;;0.40;0.30;;;;;;;;;;4947212;28;20042;-74
2023/11/05 09:01:10;;;;;;;0.93;0.30;;;;;;;;;;4954047;28;20516;-73
2023/11/05 09:03:36;;;;;;;0.30;0.30;;;;;;;;;;4945644;28;20036;-74
2023/11/05 09:06:02;;;;;;;0.95;0.25;;;;;;;;;;4938270;28;20046;-73
2023/11/05 09:08:28;;;;;;;0.35;0.30;;;;;;;;;;4938413;28;20911;-74
2023/11/05 09:10:53;;;;;;;0.50;0.30;;;;;;;;;;4925715;28;20051;-73
2023/11/05 09:13:19;;;;;;;0.75;0.40;;;;;;;;;;4938007;28;20679;-73
2023/11/05 09:15:49;;;;;;;0.63;0.30;;;;;;;;;;4931408;28;20094;-74
2023/11/05 09:18:15;;;;;;;1.27;0.35;;;;;;;;;;4918616;28;20035;-73
2023/11/05 09:20:40;;;;;;;0.30;0.30;;;;;;;;;;4937453;28;20053;-74
2023/11/05 09:23:05;;;;;;;0.90;0.50;;;;;;;;;;4924957;28;20074;-74
2023/11/05 09:25:31;;;;;;;0.40;0.40;;;;;;;;;;4935739;28;20035;-75
2023/11/05 09:27:56;;;;;;;0.52;0.30;;;;;;;;;;4938738;28;20042;-75
2023/11/05 09:30:22;;;;;;;0.63;0.63;;;;;;;;;;4942576;28;20667;-75
2023/11/05 09:32:47;;;;;;;0.30;0.30;;;;;;;;;;4941540;28;20290;-74
2023/11/05 09:35:13;;;;;;;0.30;0.30;;;;;;;;;;4920915;28;20105;-74
2023/11/05 09:37:41;;;;;;;0.63;0.22;;;;;;;;;;4944597;28;20051;-74
2023/11/05 09:40:07;;;;;;;1.25;0.55;;;;;;;;;;4937689;28;20058;-74
2023/11/05 09:42:37;;;;;;;0.30;0.30;;;;;;;;;;4937736;28;20074;-73
2023/11/05 09:45:06;;;;;;;0.88;0.32;;;;;;;;;;4933656;28;20098;-74
2023/11/05 09:47:32;;;;;;;0.85;0.30;;;;;;;;;;4966667;28;20046;-74
2023/11/05 09:49:58;;;;;;;0.80;0.80;;;;;;;;;;4937329;28;20039;-74
2023/11/05 09:52:23;;;;;;;0.20;0.20;;;;;;;;;;4935897;28;20116;-73
2023/11/05 09:54:49;;;;;;;1.05;0.75;;;;;;;;;;4939446;28;20049;-74
2023/11/05 09:57:14;;;;;;;0.85;0.30;;;;;;;;;;4951373;28;20080;-75
2023/11/05 09:59:47;;;;;;;0.30;0.30;;;;;;;;;;4936492;28;20031;-74
2023/11/05 10:02:13;;;;;;;1.13;0.40;;;;;;;;;;4958575;28;20101;-75
2023/11/05 10:04:39;;;;;;;0.70;0.35;;;;;;;;;;4923613;28;20149;-74
2023/11/05 10:07:04;;;;;;;0.45;0.30;;;;;;;;;;4934121;28;20039;-74
2023/11/05 10:09:30;;;;;;;1.35;0.30;;;;;;;;;;4946901;28;20582;-74
2023/11/05 10:11:55;;;;;;;0.30;0.30;;;;;;;;;;4942765;28;20043;-74
2023/11/05 10:14:21;;;;;;;1.08;0.40;;;;;;;;;;4939008;28;20042;-74
2023/11/05 10:16:47;;;;;;;1.27;0.57;;;;;;;;;;4934048;28;20117;-74
2023/11/05 10:19:13;;;;;;;1.48;0.70;;;;;;;;;;4933053;28;20452;-74
2023/11/05 10:21:38;;;;;;;1.52;0.70;;;;;;;;;;4938001;28;20646;-73
2023/11/05 10:24:05;;;;;;;2.55;0.63;;;;;;;;;;4959495;28;20135;-73
2023/11/05 10:26:33;;;;;;;1.00;0.30;;;;;;;;;;4939456;28;20141;-74
2023/11/05 10:28:59;;;;;;;0.55;0.47;;;;;;;;;;4947253;28;20134;-73
2023/11/05 10:31:26;;;;;;;1.55;0.77;;;;;;;;;;4949337;28;20150;-73
2023/11/05 10:33:54;;;;;;;2.13;0.63;;;;;;;;;;4923844;28;20069;-73
2023/11/05 10:36:25;;;;;;;1.20;0.50;;;;;;;;;;4951109;28;20474;-73
2023/11/05 10:38:51;;;;;;;0.60;0.50;;;;;;;;;;4932939;28;20051;-73
2023/11/05 10:41:26;;;;;;;2.20;0.43;;;;;;;;;;4941645;28;20043;-74
2023/11/05 10:43:52;;;;;;;1.08;0.57;;;;;;;;;;5003402;28;20041;-73
2023/11/05 10:46:21;;;;;;;1.65;0.50;;;;;;;;;;4911475;28;20047;-73
2023/11/05 10:48:50;;;;;;;0.65;0.40;;;;;;;;;;4936126;28;20047;-74
2023/11/05 10:51:21;;;;;;;1.35;0.50;;;;;;;;;;4948187;28;20050;-74
2023/11/05 10:53:47;;;;;;;0.43;0.40;;;;;;;;;;4943010;28;20039;-73
2023/11/05 10:56:36;;;;;;;1.40;0.40;;;;;;;;;;4935178;28;20043;-74
2023/11/05 10:59:02;;;;;;;0.55;0.40;;;;;;;;;;4924545;28;20075;-73
2023/11/05 11:01:32;;;;;;;0.40;0.40;;;;;;;;;;4945728;28;20062;-74
2023/11/05 11:04:11;;;;;;;0.85;0.52;;;;;;;;;;4935189;28;20039;-74
2023/11/05 11:06:40;;;;;;;1.10;0.40;;;;;;;;;;4933864;28;20035;-74
2023/11/05 11:09:08;;;;;;;1.58;0.55;;;;;;;;;;4936579;28;20129;-74
2023/11/05 11:11:35;;;;;;;1.88;0.40;;;;;;;;;;4927860;28;20042;-74
2023/11/05 11:14:00;;;;;;;0.47;0.30;;;;;;;;;;4933358;28;20035;-73
2023/11/05 11:16:31;;;;;;;1.95;0.70;;;;;;;;;;4935289;28;20482;-73
2023/11/05 11:18:57;;;;;;;0.30;0.30;;;;;;;;;;4939049;28;20424;-74
2023/11/05 11:21:24;;;;;;;0.50;0.43;;;;;;;;;;4932400;28;20040;-74
2023/11/05 11:23:49;;;;;;;0.52;0.50;;;;;;;;;;4926394;28;20104;-73
2023/11/05 11:26:24;;;;;;;1.05;0.60;;;;;;;;;;4936759;28;20558;-73
2023/11/05 11:28:55;;;;;;;1.40;0.52;;;;;;;;;;4932705;28;20466;-73
2023/11/05 11:31:21;;;;;;;1.45;0.45;;;;;;;;;;4962060;28;20101;-73
2023/11/05 11:33:48;;;;;;;1.20;0.50;;;;;;;;;;4915475;28;20035;-73
2023/11/05 11:36:13;;;;;;;1.75;0.52;;;;;;;;;;4927693;28;20066;-75
2023/11/05 11:38:38;;;;;;;0.55;0.20;;;;;;;;;;4934399;28;20070;-72
2023/11/05 11:41:04;;;;;;;0.63;0.40;;;;;;;;;;4948405;28;20043;-75
2023/11/05 11:43:30;;;;;;;1.27;0.70;;;;;;;;;;4933935;28;20101;-75
2023/11/05 11:45:56;;;;;;;1.02;0.40;;;;;;;;;;4963441;28;20515;-75
2023/11/05 11:48:25;;;;;;;1.15;0.55;;;;;;;;;;4943134;28;20121;-73
2023/11/05 11:51:06;;;;;;;0.40;0.35;;;;;;;;;;4925448;28;20039;-73
2023/11/05 11:53:38;;;;;;;5.50;2.13;;;;;;;;;;4938878;28;20048;-72
2023/11/05 11:56:05;;;;;;;2.20;0.90;;;;;;;;;;4933224;28;20054;-75
2023/11/05 11:58:38;;;;;;;0.70;0.40;;;;;;;;;;4931070;28;20057;-74
2023/11/05 12:01:09;;;;;;;1.98;0.90;;;;;;;;;;4945583;28;20043;-75
2023/11/05 12:03:35;;;;;;;0.98;0.77;;;;;;;;;;4924235;28;20058;-74
2023/11/05 12:06:00;;;;;;;4.57;2.58;;;;;;;;;;4931877;28;20051;-74
2023/11/05 12:08:43;;;;;;;0.85;0.60;;;;;;;;;;4945103;28;20042;-74
2023/11/05 12:11:10;;;;;;;1.40;0.77;;;;;;;;;;4944533;28;20039;-74
2023/11/05 12:13:39;;;;;;;0.20;0.20;;;;;;;;;;4945087;28;20059;-74
2023/11/05 12:16:06;;;;;;;0.57;0.50;;;;;;;;;;4916913;28;20046;-74
2023/11/05 12:18:31;;;;;;;1.10;0.40;;;;;;;;;;4944077;28;20041;-74
2023/11/05 12:20:59;;;;;;;0.82;0.52;;;;;;;;;;4927407;28;20897;-74
2023/11/05 12:23:24;;;;;;;1.52;0.60;;;;;;;;;;4928613;28;20039;-73
2023/11/05 12:25:57;;;;;;;0.65;0.50;;;;;;;;;;4939311;28;20058;-73
2023/11/05 12:28:22;;;;;;;1.17;0.75;;;;;;;;;;4911506;28;20047;-74
2023/11/05 12:30:48;;;;;;;1.35;0.50;;;;;;;;;;4935803;28;20093;-73
2023/11/05 12:33:13;;;;;;;1.38;0.60;;;;;;;;;;4937396;28;20050;-73
2023/11/05 12:35:39;;;;;;;1.27;0.30;;;;;;;;;;4933873;28;20151;-73
2023/11/05 12:38:05;;;;;;;2.75;0.57;;;;;;;;;;4919301;28;20081;-73
2023/11/05 12:40:30;;;;;;;0.30;0.30;;;;;;;;;;4934252;28;20040;-73
2023/11/05 12:42:56;;;;;;;0.60;0.47;;;;;;;;;;4927127;28;20616;-74
2023/11/05 12:45:21;;;;;;;0.77;0.73;;;;;;;;;;4943454;28;20085;-74
2023/11/05 12:47:47;;;;;;;0.60;0.60;;;;;;;;;;4934699;28;20381;-74
2023/11/05 12:50:13;;;;;;;0.95;0.65;;;;;;;;;;4937254;28;20043;-74
2023/11/05 12:52:38;;;;;;;0.45;0.40;;;;;;;;;;4919613;28;20568;-74
2023/11/05 12:55:04;;;;;;;5.07;2.72;;;;;;;;;;4934240;28;20035;-74
2023/11/05 12:57:30;;;;;;;2.50;1.42;;;;;;;;;;4931272;28;20039;-74
2023/11/05 12:59:56;;;;;;;2.25;1.02;;;;;;;;;;4940077;28;20100;-74
2023/11/05 13:02:21;;;;;;;1.33;0.80;;;;;;;;;;4948850;28;20043;-74
2023/11/05 13:04:48;;;;;;;0.95;0.50;;;;;;;;;;4939853;28;20043;-74
2023/11/05 13:07:13;;;;;;;0.50;0.40;;;;;;;;;;4933527;28;20031;-74
2023/11/05 13:09:39;;;;;;;0.80;0.50;;;;;;;;;;4936290;28;20035;-74
2023/11/05 13:12:05;;;;;;;0.55;0.43;;;;;;;;;;4927621;28;20054;-74
2023/11/05 13:14:31;;;;;;;0.70;0.70;;;;;;;;;;4938443;28;20035;-74
2023/11/05 13:16:57;;;;;;;0.63;0.40;;;;;;;;;;4935207;28;20046;-74
2023/11/05 13:19:23;;;;;;;0.45;0.40;;;;;;;;;;4919083;28;20494;-74
2023/11/05 13:21:48;;;;;;;0.50;0.40;;;;;;;;;;4941609;28;20092;-73
2023/11/05 13:24:14;;;;;;;0.85;0.52;;;;;;;;;;4926147;28;20504;-74
2023/11/05 13:26:40;;;;;;;0.28;0.28;;;;;;;;;;4936460;28;20043;-74
2023/11/05 13:29:06;;;;;;;0.73;0.40;;;;;;;;;;4940383;28;20511;-74
2023/11/05 13:31:32;;;;;;;0.40;0.40;;;;;;;;;;4946517;28;20042;-74
2023/11/05 13:34:01;;;;;;;0.38;0.30;;;;;;;;;;4939089;28;20039;-74
2023/11/05 13:36:27;;;;;;;5.65;2.13;;;;;;;;;;4935886;28;20728;-74
2023/11/05 13:38:52;;;;;;;0.80;0.80;;;;;;;;;;4928674;28;20144;-74
2023/11/05 13:41:18;;;;;;;0.20;0.20;;;;;;;;;;4940764;28;20122;-74
2023/11/05 13:43:43;;;;;;;0.57;0.32;;;;;;;;;;4933418;28;20043;-74
2023/11/05 13:46:09;;;;;;;0.40;0.40;;;;;;;;;;4924027;28;20043;-74
2023/11/05 13:48:34;;;;;;;1.52;0.25;;;;;;;;;;4939475;28;20752;-74
2023/11/05 13:51:00;;;;;;;0.50;0.38;;;;;;;;;;4939090;28;20141;-73
2023/11/05 13:53:25;;;;;;;0.57;0.57;;;;;;;;;;4930342;28;20077;-74
2023/11/05 13:55:51;;;;;;;0.32;0.30;;;;;;;;;;4923288;28;20153;-74
2023/11/05 13:58:19;;;;;;;0.28;0.28;;;;;;;;;;4941860;28;20134;-74
2023/11/05 14:00:48;;;;;;;0.30;0.30;;;;;;;;;;4928355;28;20038;-74
2023/11/05 14:03:14;;;;;;;0.52;0.52;;;;;;;;;;4958385;28;20079;-74
2023/11/05 14:05:39;;;;;;;0.35;0.35;;;;;;;;;;4944914;28;20114;-74
2023/11/05 14:08:07;;;;;;;0.75;0.40;;;;;;;;;;4926129;28;20789;-73
2023/11/05 14:10:34;;;;;;;1.80;1.10;;;;;;;;;;4943258;28;20566;-74
2023/11/05 14:13:01;;;;;;;0.52;0.45;;;;;;;;;;4926741;28;20043;-73
2023/11/05 14:15:27;;;;;;;0.45;0.30;;;;;;;;;;4936380;28;20400;-73
2023/11/05 14:17:53;;;;;;;0.20;0.20;;;;;;;;;;4939434;28;20046;-73
2023/11/05 14:20:18;;;;;;;0.95;0.47;;;;;;;;;;4928544;28;20042;-73
2023/11/05 14:22:43;;;;;;;0.40;0.30;;;;;;;;;;4939112;28;20049;-74
2023/11/05 14:25:09;;;;;;;0.43;0.40;;;;;;;;;;4940123;28;20063;-73
2023/11/05 14:27:35;;;;;;;1.30;0.57;;;;;;;;;;4924862;28;20038;-74
2023/11/05 14:30:02;;;;;;;0.38;0.38;;;;;;;;;;4936897;28;20070;-74
2023/11/05 14:32:27;;;;;;;0.70;0.68;;;;;;;;;;4946500;28;20044;-73
2023/11/05 14:34:53;;;;;;;0.30;0.30;;;;;;;;;;4925129;28;20501;-74
2023/11/05 14:37:18;;;;;;;0.65;0.30;;;;;;;;;;4954572;28;20039;-74